createdAt,value
2019-02-07T00:00:59.947Z,74.40
2019-02-07T00:02:00.999Z,75.10
2019-02-07T00:03:01.941Z,74.70
2019-02-07T00:04:02.792Z,74.70
2019-02-07T00:05:03.622Z,75.00
2019-02-07T00:06:04.469Z,74.50
2019-02-07T00:07:05.474Z,75.20
2019-02-07T00:08:06.333Z,75.90
2019-02-07T00:09:07.471Z,75.20
2019-02-07T00:10:08.328Z,74.80
2019-02-07T00:11:09.433Z,75.60
2019-02-07T00:12:10.267Z,76.70
2019-02-07T00:13:11.103Z,76.80
2019-02-07T00:14:11.938Z,76.70
2019-02-07T00:15:12.816Z,75.60
2019-02-07T00:16:13.654Z,75.90
2019-02-07T00:17:15.266Z,75.00
2019-02-07T00:18:16.116Z,75.80
2019-02-07T00:19:16.968Z,75.90
2019-02-07T00:20:17.911Z,75.20
2019-02-07T00:21:18.755Z,75.60
2019-02-07T00:22:19.593Z,75.90
2019-02-07T00:23:20.426Z,76.10
2019-02-07T00:24:21.278Z,75.70
2019-02-07T00:25:22.105Z,75.90
2019-02-07T00:26:23.336Z,75.90
2019-02-07T00:27:24.182Z,76.20
2019-02-07T00:28:25.026Z,76.20
2019-02-07T00:29:26.151Z,76.40
2019-02-07T00:30:26.990Z,76.60
2019-02-07T00:31:27.950Z,75.70
2019-02-07T00:32:28.878Z,76.00
2019-02-07T00:33:29.959Z,76.40
2019-02-07T00:34:30.882Z,76.40
2019-02-07T00:35:32.226Z,76.20
2019-02-07T00:36:33.161Z,76.80
2019-02-07T00:37:34.122Z,76.40
2019-02-07T00:38:34.989Z,75.90
2019-02-07T00:39:35.905Z,75.40
2019-02-07T00:40:36.737Z,74.50
2019-02-07T00:41:37.552Z,75.00
2019-02-07T00:42:38.432Z,74.80
2019-02-07T00:43:39.500Z,75.50
2019-02-07T00:44:50.234Z,75.20
2019-02-07T00:45:43.051Z,74.80
2019-02-07T00:46:43.917Z,74.20
2019-02-07T00:47:44.877Z,73.50
2019-02-07T00:48:46.030Z,73.10
2019-02-07T00:49:46.858Z,73.00
2019-02-07T00:50:47.730Z,72.90
2019-02-07T00:51:48.570Z,72.70
2019-02-07T00:52:49.693Z,72.50
2019-02-07T00:53:50.652Z,72.00
2019-02-07T00:54:51.483Z,71.70
2019-02-07T00:55:52.472Z,71.10
2019-02-07T00:56:53.295Z,71.20
2019-02-07T00:57:54.179Z,71.10
2019-02-07T00:58:55.085Z,71.00
2019-02-07T00:59:55.937Z,70.90
2019-02-07T01:00:56.874Z,70.90
2019-02-07T01:01:58.198Z,70.80
2019-02-07T01:02:59.018Z,70.60
2019-02-07T01:03:59.859Z,70.30
2019-02-07T01:05:00.719Z,71.60
2019-02-07T01:06:01.591Z,70.50
2019-02-07T01:07:03.709Z,70.70
2019-02-07T01:08:04.787Z,70.50
2019-02-07T01:09:06.909Z,70.50
2019-02-07T01:10:08.143Z,70.40
2019-02-07T01:11:09.663Z,70.30
2019-02-07T01:12:10.953Z,70.30
2019-02-07T01:13:12.146Z,70.30
2019-02-07T01:14:13.288Z,70.20
2019-02-07T01:15:14.358Z,70.20
2019-02-07T01:16:15.384Z,70.30
2019-02-07T01:17:16.716Z,70.30
2019-02-07T01:18:18.036Z,70.40
2019-02-07T01:19:18.981Z,70.20
2019-02-07T01:20:20.322Z,70.60
2019-02-07T01:21:21.701Z,70.00
2019-02-07T01:22:22.701Z,70.10
2019-02-07T01:23:23.595Z,70.40
2019-02-07T01:24:24.820Z,70.50
2019-02-07T01:25:25.746Z,71.70
2019-02-07T01:26:26.864Z,70.30
2019-02-07T01:27:28.109Z,71.30
2019-02-07T01:28:29.020Z,69.70
2019-02-07T01:29:31.705Z,69.90
2019-02-07T01:30:32.784Z,69.60
2019-02-07T01:31:33.832Z,69.90
2019-02-07T01:32:35.088Z,69.20
2019-02-07T01:33:37.521Z,69.20
2019-02-07T01:34:38.716Z,69.30
2019-02-07T01:35:39.587Z,69.00
2019-02-07T01:36:40.568Z,69.50
2019-02-07T01:37:41.385Z,68.60
2019-02-07T01:38:42.721Z,69.00
2019-02-07T01:39:43.568Z,68.00
2019-02-07T01:40:44.509Z,68.50
2019-02-07T01:41:45.340Z,68.00
2019-02-07T01:42:46.163Z,68.00
2019-02-07T01:43:46.997Z,67.50
2019-02-07T01:44:47.857Z,68.20
2019-02-07T01:45:48.673Z,67.90
2019-02-07T01:46:49.904Z,67.20
2019-02-07T01:47:50.861Z,67.50
2019-02-07T01:48:51.689Z,67.60
2019-02-07T01:49:52.521Z,67.70
2019-02-07T01:50:53.344Z,67.30
2019-02-07T01:51:54.172Z,66.70
2019-02-07T01:52:55.068Z,67.40
2019-02-07T01:53:56.086Z,67.20
2019-02-07T01:54:56.909Z,67.60
2019-02-07T01:55:58.133Z,68.00
2019-02-07T01:56:58.986Z,67.40
2019-02-07T01:57:59.855Z,67.40
2019-02-07T01:59:00.668Z,67.50
2019-02-07T02:00:01.494Z,67.30
2019-02-07T02:01:02.351Z,67.30
2019-02-07T02:02:03.186Z,67.50
2019-02-07T02:03:04.144Z,67.30
2019-02-07T02:04:04.977Z,67.30
2019-02-07T02:05:05.823Z,67.60
2019-02-07T02:06:06.780Z,67.40
2019-02-07T02:07:07.708Z,68.00
2019-02-07T02:08:08.573Z,67.50
2019-02-07T02:09:09.387Z,67.30
2019-02-07T02:10:10.321Z,66.80
2019-02-07T02:11:11.278Z,67.30
2019-02-07T02:12:12.126Z,67.10
2019-02-07T02:13:13.433Z,67.60
2019-02-07T02:14:14.298Z,67.40
2019-02-07T02:15:24.169Z,67.50
2019-02-07T02:16:17.882Z,67.60
2019-02-07T02:17:18.747Z,67.50
2019-02-07T02:18:19.666Z,66.90
2019-02-07T02:19:20.524Z,67.20
2019-02-07T02:20:21.348Z,67.00
2019-02-07T02:21:22.178Z,67.00
2019-02-07T02:22:23.505Z,67.00
2019-02-07T02:23:24.358Z,67.00
2019-02-07T02:24:25.232Z,67.10
2019-02-07T02:25:26.096Z,67.40
2019-02-07T02:26:27.004Z,66.90
2019-02-07T02:27:27.811Z,66.70
2019-02-07T02:28:28.637Z,66.80
2019-02-07T02:29:29.497Z,67.00
2019-02-07T02:30:30.336Z,66.80
2019-02-07T02:31:31.185Z,66.60
2019-02-07T02:32:32.103Z,66.80
2019-02-07T02:33:32.966Z,67.40
2019-02-07T02:34:33.823Z,67.00
2019-02-07T02:35:34.733Z,66.80
2019-02-07T02:36:35.584Z,66.80
2019-02-07T02:37:36.425Z,66.70
2019-02-07T02:38:37.241Z,67.20
2019-02-07T02:39:38.563Z,66.70
2019-02-07T02:40:39.414Z,66.20
2019-02-07T02:41:40.235Z,66.20
2019-02-07T02:42:41.069Z,66.40
2019-02-07T02:43:41.909Z,66.10
2019-02-07T02:44:42.726Z,67.50
2019-02-07T02:45:43.575Z,66.40
2019-02-07T02:46:44.408Z,66.60
2019-02-07T02:47:45.234Z,65.90
2019-02-07T02:48:46.191Z,65.70
2019-02-07T02:49:47.220Z,66.10
2019-02-07T02:50:48.070Z,66.80
2019-02-07T02:51:49.018Z,65.50
2019-02-07T02:52:49.943Z,65.70
2019-02-07T02:53:50.879Z,65.40
2019-02-07T02:54:51.704Z,65.50
2019-02-07T02:55:52.559Z,66.20
2019-02-07T02:56:53.898Z,66.50
2019-02-07T02:57:54.746Z,65.90
2019-02-07T02:58:55.616Z,65.70
2019-02-07T02:59:56.550Z,65.80
2019-02-07T03:00:57.380Z,66.20
2019-02-07T03:01:58.215Z,66.00
2019-02-07T03:02:59.170Z,65.70
2019-02-07T03:04:00.029Z,65.00
2019-02-07T03:05:00.839Z,65.50
2019-02-07T03:06:02.078Z,65.50
2019-02-07T03:07:03.002Z,66.40
2019-02-07T03:08:03.944Z,65.90
2019-02-07T03:09:04.806Z,66.00
2019-02-07T03:10:05.826Z,66.70
2019-02-07T03:11:06.744Z,67.10
2019-02-07T03:12:07.584Z,66.40
2019-02-07T03:13:08.439Z,65.50
2019-02-07T03:14:09.268Z,64.80
2019-02-07T03:15:10.646Z,65.20
2019-02-07T03:16:11.486Z,64.80
2019-02-07T03:17:12.399Z,65.30
2019-02-07T03:18:13.223Z,64.50
2019-02-07T03:19:14.041Z,64.40
2019-02-07T03:20:14.906Z,64.30
2019-02-07T03:21:15.741Z,62.50
2019-02-07T03:22:16.578Z,63.00
2019-02-07T03:23:17.800Z,63.50
2019-02-07T03:24:18.718Z,64.50
2019-02-07T03:25:19.569Z,63.40
2019-02-07T03:26:20.509Z,61.70
2019-02-07T03:27:21.330Z,62.00
2019-02-07T03:28:22.150Z,61.30
2019-02-07T03:29:22.980Z,62.00
2019-02-07T03:30:23.881Z,61.10
2019-02-07T03:31:24.955Z,61.00
2019-02-07T03:32:26.282Z,61.80
2019-02-07T03:33:27.134Z,60.40
2019-02-07T03:34:28.062Z,60.20
2019-02-07T03:35:28.935Z,59.50
2019-02-07T03:36:29.788Z,60.50
2019-02-07T03:37:30.726Z,60.90
2019-02-07T03:38:31.558Z,59.60
2019-02-07T03:39:32.519Z,58.80
2019-02-07T03:40:33.387Z,58.90
2019-02-07T03:41:34.261Z,58.30
2019-02-07T03:42:35.226Z,58.20
2019-02-07T03:43:36.125Z,57.70
2019-02-07T03:44:36.956Z,57.70
2019-02-07T03:45:37.813Z,57.70
2019-02-07T03:46:38.630Z,58.00
2019-02-07T03:47:39.485Z,58.50
2019-02-07T03:48:40.320Z,59.00
2019-02-07T03:49:41.767Z,58.80
2019-02-07T03:50:42.596Z,58.10
2019-02-07T03:51:43.442Z,58.50
2019-02-07T03:52:44.343Z,58.50
2019-02-07T03:53:45.198Z,58.40
2019-02-07T03:54:46.028Z,58.40
2019-02-07T03:55:46.866Z,57.90
2019-02-07T03:56:47.681Z,58.50
2019-02-07T03:57:48.556Z,58.70
2019-02-07T03:58:49.985Z,59.30
2019-02-07T03:59:50.802Z,60.10
2019-02-07T04:00:51.655Z,59.60
2019-02-07T04:01:52.525Z,59.50
2019-02-07T04:02:53.483Z,59.40
2019-02-07T04:03:54.308Z,59.50
2019-02-07T04:04:55.317Z,58.50
2019-02-07T04:05:56.145Z,58.70
2019-02-07T04:06:56.987Z,59.70
2019-02-07T04:07:57.946Z,58.90
2019-02-07T04:08:58.768Z,57.60
2019-02-07T04:09:59.604Z,57.80
2019-02-07T04:11:00.431Z,58.00
2019-02-07T04:12:01.307Z,58.30
2019-02-07T04:13:02.142Z,58.40
2019-02-07T04:14:02.969Z,59.00
2019-02-07T04:15:03.827Z,59.00
2019-02-07T04:16:14.839Z,59.50
2019-02-07T04:17:07.777Z,59.60
2019-02-07T04:18:08.611Z,59.80
2019-02-07T04:19:09.433Z,58.90
2019-02-07T04:20:10.306Z,59.50
2019-02-07T04:21:11.119Z,60.40
2019-02-07T04:22:11.957Z,59.60
2019-02-07T04:23:12.771Z,59.60
2019-02-07T04:24:13.604Z,59.90
2019-02-07T04:25:14.951Z,61.00
2019-02-07T04:26:15.775Z,59.50
2019-02-07T04:27:16.606Z,61.10
2019-02-07T04:28:17.426Z,60.40
2019-02-07T04:29:18.286Z,60.40
2019-02-07T04:30:19.143Z,60.20
2019-02-07T04:31:19.965Z,60.60
2019-02-07T04:32:20.794Z,60.50
2019-02-07T04:33:21.752Z,61.00
2019-02-07T04:34:22.995Z,60.80
2019-02-07T04:35:23.823Z,61.50
2019-02-07T04:36:24.736Z,60.70
2019-02-07T04:37:25.681Z,60.70
2019-02-07T04:38:26.682Z,61.20
2019-02-07T04:39:27.509Z,61.20
2019-02-07T04:40:28.366Z,60.50
2019-02-07T04:41:29.196Z,61.00
2019-02-07T04:42:30.259Z,60.40
2019-02-07T04:43:31.474Z,61.00
2019-02-07T04:44:32.303Z,61.20
2019-02-07T04:45:33.157Z,60.80
2019-02-07T04:46:34.022Z,61.50
2019-02-07T04:47:34.854Z,63.00
2019-02-07T04:48:35.712Z,63.00
2019-02-07T04:49:36.614Z,62.90
2019-02-07T04:50:37.526Z,63.00
2019-02-07T04:51:38.672Z,62.70
2019-02-07T04:52:39.568Z,63.60
2019-02-07T04:53:40.421Z,63.10
2019-02-07T04:54:41.258Z,64.50
2019-02-07T04:55:42.088Z,63.50
2019-02-07T04:56:42.936Z,63.50
2019-02-07T04:57:43.861Z,63.50
2019-02-07T04:58:44.758Z,62.80
2019-02-07T04:59:45.592Z,63.60
2019-02-07T05:00:46.927Z,63.60
2019-02-07T05:01:47.751Z,64.30
2019-02-07T05:02:48.595Z,63.90
2019-02-07T05:03:49.468Z,62.40
2019-02-07T05:04:50.298Z,62.70
2019-02-07T05:05:51.162Z,61.60
2019-02-07T05:06:52.001Z,61.50
2019-02-07T05:07:52.821Z,62.50
2019-02-07T05:08:53.713Z,63.10
2019-02-07T05:09:54.795Z,62.30
2019-02-07T05:10:55.653Z,63.00
2019-02-07T05:11:56.530Z,62.40
2019-02-07T05:12:57.473Z,62.80
2019-02-07T05:13:58.313Z,63.40
2019-02-07T05:14:59.155Z,63.60
2019-02-07T05:16:00.022Z,62.80
2019-02-07T05:17:00.953Z,63.00
2019-02-07T05:18:02.225Z,62.40
2019-02-07T05:19:03.050Z,63.50
2019-02-07T05:20:03.882Z,63.00
2019-02-07T05:21:04.710Z,62.60
2019-02-07T05:22:05.562Z,62.90
2019-02-07T05:23:06.414Z,62.90
2019-02-07T05:24:07.376Z,62.90
2019-02-07T05:25:08.316Z,63.30
2019-02-07T05:26:09.242Z,63.40
2019-02-07T05:27:10.084Z,63.70
2019-02-07T05:28:10.933Z,63.80
2019-02-07T05:29:11.812Z,63.60
2019-02-07T05:30:12.647Z,63.90
2019-02-07T05:31:13.489Z,64.10
2019-02-07T05:32:14.317Z,64.00
2019-02-07T05:33:15.239Z,64.30
2019-02-07T05:34:16.085Z,63.70
2019-02-07T05:35:17.798Z,64.30
2019-02-07T05:36:18.626Z,64.20
2019-02-07T05:37:19.615Z,64.10
2019-02-07T05:38:20.600Z,64.40
2019-02-07T05:39:21.515Z,64.10
2019-02-07T05:40:22.336Z,64.50
2019-02-07T05:41:23.158Z,64.90
2019-02-07T05:42:24.277Z,64.80
2019-02-07T05:43:25.217Z,64.70
2019-02-07T05:44:26.543Z,64.90
2019-02-07T05:45:27.378Z,64.70
2019-02-07T05:46:28.211Z,64.80
2019-02-07T05:47:29.034Z,65.00
2019-02-07T05:48:29.921Z,65.50
2019-02-07T05:49:30.763Z,65.40
2019-02-07T05:50:31.703Z,65.00
2019-02-07T05:51:32.507Z,65.80
2019-02-07T05:52:33.820Z,65.70
2019-02-07T05:53:34.794Z,65.50
2019-02-07T05:54:35.667Z,65.50
2019-02-07T05:55:36.484Z,64.70
2019-02-07T05:56:37.320Z,65.60
2019-02-07T05:57:38.151Z,65.70
2019-02-07T05:58:39.141Z,65.70
2019-02-07T05:59:40.284Z,66.40
2019-02-07T06:00:41.241Z,66.70
2019-02-07T06:01:42.664Z,66.90
2019-02-07T06:02:43.524Z,66.60
2019-02-07T06:03:44.521Z,67.00
2019-02-07T06:04:45.662Z,67.00
2019-02-07T06:05:46.508Z,67.70
2019-02-07T06:06:47.331Z,67.80
2019-02-07T06:07:48.162Z,67.80
2019-02-07T06:08:49.041Z,67.90
2019-02-07T06:09:49.981Z,68.50
2019-02-07T06:10:50.809Z,68.50
2019-02-07T06:11:51.650Z,68.50
2019-02-07T06:12:52.508Z,68.50
2019-02-07T06:13:53.488Z,68.10
2019-02-07T06:14:54.313Z,68.70
2019-02-07T06:15:56.994Z,68.70
2019-02-07T06:17:02.741Z,69.30
2019-02-07T06:18:00.719Z,70.70
2019-02-07T06:19:01.597Z,71.50
2019-02-07T06:20:02.812Z,69.70
2019-02-07T06:21:03.659Z,70.30
2019-02-07T06:22:04.504Z,70.40
2019-02-07T06:23:05.329Z,69.80
2019-02-07T06:24:06.208Z,69.30
2019-02-07T06:25:07.055Z,70.10
2019-02-07T06:26:08.007Z,70.00
2019-02-07T06:27:08.954Z,73.00
2019-02-07T06:28:10.116Z,74.10
2019-02-07T06:29:11.090Z,74.90
2019-02-07T06:30:12.045Z,76.20
2019-02-07T06:31:12.996Z,77.60
2019-02-07T06:32:13.928Z,77.60
2019-02-07T06:33:14.991Z,78.70
2019-02-07T06:34:15.926Z,78.10
2019-02-07T06:35:16.808Z,78.60
2019-02-07T06:36:17.795Z,78.30
2019-02-07T06:37:19.125Z,79.90
2019-02-07T06:38:20.306Z,80.30
2019-02-07T06:39:22.394Z,80.10
2019-02-07T06:40:23.267Z,79.00
2019-02-07T06:41:24.206Z,79.50
2019-02-07T06:42:25.091Z,78.30
2019-02-07T06:43:26.073Z,77.10
2019-02-07T06:44:27.264Z,80.50
2019-02-07T06:45:28.132Z,79.90
2019-02-07T06:46:29.450Z,79.90
2019-02-07T06:47:30.318Z,78.90
2019-02-07T06:48:31.291Z,78.00
2019-02-07T06:49:32.223Z,77.50
2019-02-07T06:50:33.184Z,76.00
2019-02-07T06:51:34.037Z,78.00
2019-02-07T06:52:34.973Z,79.20
2019-02-07T06:53:35.919Z,79.20
2019-02-07T06:54:37.243Z,80.00
2019-02-07T06:55:38.482Z,79.00
2019-02-07T06:56:39.311Z,80.50
2019-02-07T06:57:40.169Z,78.10
2019-02-07T06:58:41.083Z,77.90
2019-02-07T06:59:41.950Z,77.40
2019-02-07T07:00:42.926Z,77.20
2019-02-07T07:01:43.802Z,78.40
2019-02-07T07:04:05.103Z,79.40
2019-02-07T07:05:05.952Z,79.40
2019-02-07T07:06:06.905Z,78.40
2019-02-07T07:07:08.365Z,77.90
2019-02-07T07:08:09.196Z,79.90
2019-02-07T07:09:11.782Z,79.40
2019-02-07T07:10:12.750Z,79.40
2019-02-07T07:11:13.596Z,79.60
2019-02-07T07:12:14.463Z,80.00
2019-02-07T07:13:15.282Z,79.50
2019-02-07T07:14:24.865Z,77.60
2019-02-07T07:15:25.884Z,78.80
2019-02-07T07:16:26.814Z,78.70
2019-02-07T07:17:28.059Z,78.50
2019-02-07T07:18:28.926Z,78.10
2019-02-07T07:19:29.756Z,78.70
2019-02-07T07:20:30.685Z,77.20
2019-02-07T07:21:31.545Z,78.40
2019-02-07T07:22:32.366Z,78.90
2019-02-07T07:23:33.230Z,78.80
2019-02-07T07:24:34.155Z,79.20
2019-02-07T07:25:35.325Z,78.80
2019-02-07T07:26:36.473Z,79.30
2019-02-07T07:27:37.411Z,79.50
2019-02-07T07:28:38.284Z,79.70
2019-02-07T07:29:39.142Z,79.30
2019-02-07T07:30:40.058Z,79.60
2019-02-07T07:31:40.910Z,79.40
2019-02-07T07:32:41.949Z,79.90
2019-02-07T07:33:42.780Z,80.70
2019-02-07T07:34:43.724Z,80.10
2019-02-07T07:35:44.975Z,80.60
2019-02-07T07:36:45.895Z,80.20
2019-02-07T07:37:46.702Z,81.00
2019-02-07T07:38:47.533Z,81.20
2019-02-07T07:39:48.427Z,82.00
2019-02-07T07:40:49.456Z,81.60
2019-02-07T07:41:50.546Z,81.50
2019-02-07T07:42:51.390Z,81.90
2019-02-07T07:43:52.340Z,82.00
2019-02-07T07:44:53.634Z,81.60
2019-02-07T07:45:54.579Z,81.90
2019-02-07T07:46:55.440Z,81.80
2019-02-07T07:47:56.383Z,81.20
2019-02-07T07:48:57.309Z,81.20
2019-02-07T07:49:58.278Z,81.40
2019-02-07T07:50:59.107Z,80.70
2019-02-07T07:51:59.942Z,81.00
2019-02-07T07:53:00.781Z,81.80
2019-02-07T07:54:02.118Z,81.10
2019-02-07T07:55:02.981Z,81.40
2019-02-07T07:56:03.810Z,81.40
2019-02-07T07:57:04.639Z,81.50
2019-02-07T07:58:05.483Z,80.60
2019-02-07T07:59:06.364Z,81.10
2019-02-07T08:00:07.187Z,80.70
2019-02-07T08:01:08.016Z,81.30
2019-02-07T08:02:09.190Z,81.10
2019-02-07T08:03:10.057Z,81.70
2019-02-07T08:04:10.963Z,81.30
2019-02-07T08:05:11.928Z,81.40
2019-02-07T08:06:12.873Z,81.20
2019-02-07T08:07:13.781Z,81.00
2019-02-07T08:08:14.654Z,82.00
2019-02-07T08:09:15.498Z,81.10
2019-02-07T08:10:16.446Z,81.30
2019-02-07T08:11:17.805Z,81.40
2019-02-07T08:12:18.730Z,80.70
2019-02-07T08:13:19.682Z,81.60
2019-02-07T08:14:20.577Z,81.00
2019-02-07T08:15:21.413Z,81.40
2019-02-07T08:16:22.286Z,81.00
2019-02-07T08:17:23.226Z,81.20
2019-02-07T08:18:24.098Z,81.60
2019-02-07T08:19:25.004Z,82.30
2019-02-07T08:20:25.852Z,82.30
2019-02-07T08:21:26.693Z,81.50
2019-02-07T08:22:27.581Z,81.40
2019-02-07T08:23:28.425Z,81.70
2019-02-07T08:24:29.253Z,82.10
2019-02-07T08:25:30.118Z,81.80
2019-02-07T08:26:30.975Z,81.40
2019-02-07T08:27:32.105Z,82.40
2019-02-07T08:28:33.509Z,81.90
2019-02-07T08:29:34.429Z,81.70
2019-02-07T08:30:36.743Z,82.20
2019-02-07T08:31:37.727Z,82.20
2019-02-07T08:32:38.557Z,82.80
2019-02-07T08:33:39.470Z,82.40
2019-02-07T08:34:40.373Z,82.50
2019-02-07T08:35:41.383Z,83.50
2019-02-07T08:36:42.516Z,82.60
2019-02-07T08:37:43.755Z,82.60
2019-02-07T08:38:44.607Z,82.70
2019-02-07T08:39:45.475Z,82.90
2019-02-07T08:40:46.361Z,83.40
2019-02-07T08:41:47.314Z,85.30
2019-02-07T08:42:48.241Z,84.50
2019-02-07T08:43:49.091Z,85.10
2019-02-07T08:44:49.980Z,86.00
2019-02-07T08:45:50.886Z,86.60
2019-02-07T08:46:52.268Z,86.60
2019-02-07T08:47:58.562Z,87.70
2019-02-07T08:48:55.858Z,87.30
2019-02-07T08:49:56.740Z,87.20
2019-02-07T08:50:57.675Z,88.20
2019-02-07T08:51:58.633Z,88.20
2019-02-07T08:52:59.490Z,89.20
2019-02-07T08:54:00.474Z,88.00
2019-02-07T08:55:01.455Z,88.00
2019-02-07T08:56:02.880Z,89.10
2019-02-07T08:57:03.853Z,89.20
2019-02-07T08:58:04.804Z,89.00
2019-02-07T08:59:05.628Z,88.40
2019-02-07T09:00:06.506Z,88.70
2019-02-07T09:01:07.427Z,89.00
2019-02-07T09:02:08.258Z,90.50
2019-02-07T09:03:09.419Z,88.80
2019-02-07T09:04:10.273Z,88.40
2019-02-07T09:05:11.293Z,87.70
2019-02-07T09:06:12.126Z,88.70
2019-02-07T09:07:13.086Z,89.00
2019-02-07T09:08:15.215Z,88.30
2019-02-07T09:09:16.085Z,88.20
2019-02-07T09:10:17.110Z,88.70
2019-02-07T09:11:17.984Z,88.70
2019-02-07T09:12:18.856Z,87.70
2019-02-07T09:13:19.734Z,88.50
2019-02-07T09:14:20.652Z,88.30
2019-02-07T09:15:21.478Z,88.00
2019-02-07T09:16:22.354Z,88.30
2019-02-07T09:17:23.187Z,88.40
2019-02-07T09:18:24.030Z,88.20
2019-02-07T09:19:26.898Z,89.10
2019-02-07T09:20:27.831Z,89.90
2019-02-07T09:21:28.687Z,89.90
2019-02-07T09:22:29.572Z,90.00
2019-02-07T09:23:30.707Z,88.70
2019-02-07T09:24:31.560Z,88.70
2019-02-07T09:25:34.470Z,90.00
2019-02-07T09:26:35.132Z,89.40
2019-02-07T09:27:36.020Z,89.80
2019-02-07T09:28:36.873Z,89.50
2019-02-07T09:29:37.789Z,90.00
2019-02-07T09:30:38.620Z,89.20
2019-02-07T09:31:39.485Z,89.20
2019-02-07T09:32:40.325Z,89.70
2019-02-07T09:33:41.156Z,89.20
2019-02-07T09:34:41.988Z,89.00
2019-02-07T09:35:43.099Z,89.70
2019-02-07T09:36:44.051Z,90.40
2019-02-07T09:37:44.909Z,89.70
2019-02-07T09:38:45.855Z,90.30
2019-02-07T09:39:46.691Z,90.00
2019-02-07T09:40:48.056Z,89.60
2019-02-07T09:41:48.943Z,89.60
2019-02-07T09:42:49.784Z,89.50
2019-02-07T09:43:50.621Z,89.50
2019-02-07T09:44:51.578Z,90.00
2019-02-07T09:45:52.413Z,89.70
2019-02-07T09:46:53.332Z,90.10
2019-02-07T09:47:54.202Z,90.00
2019-02-07T09:48:55.056Z,89.40
2019-02-07T09:49:56.119Z,89.00
2019-02-07T09:50:57.045Z,89.70
2019-02-07T09:51:57.890Z,90.10
2019-02-07T09:52:58.837Z,90.00
2019-02-07T09:53:59.703Z,89.50
2019-02-07T09:55:00.556Z,88.90
2019-02-07T09:56:01.533Z,88.90
2019-02-07T09:57:02.420Z,88.90
2019-02-07T09:58:03.762Z,87.40
2019-02-07T09:59:05.830Z,86.80
2019-02-07T10:00:06.749Z,87.40
2019-02-07T10:01:07.634Z,87.30
2019-02-07T10:02:08.546Z,87.40
2019-02-07T10:03:09.410Z,87.50
2019-02-07T10:04:10.247Z,87.00
2019-02-07T10:05:11.115Z,87.70
2019-02-07T10:06:12.028Z,87.50
2019-02-07T10:07:13.475Z,87.10
2019-02-07T10:08:14.399Z,87.70
2019-02-07T10:09:15.332Z,87.10
2019-02-07T10:10:16.186Z,87.10
2019-02-07T10:11:17.166Z,87.00
2019-02-07T10:12:18.020Z,86.70
2019-02-07T10:13:18.951Z,86.50
2019-02-07T10:14:19.885Z,86.90
2019-02-07T10:15:20.813Z,86.20
2019-02-07T10:16:22.090Z,86.20
2019-02-07T10:17:23.037Z,86.50
2019-02-07T10:18:32.816Z,86.40
2019-02-07T10:19:26.689Z,86.60
2019-02-07T10:20:27.706Z,86.60
2019-02-07T10:21:28.653Z,86.60
2019-02-07T10:22:29.615Z,87.50
2019-02-07T10:23:30.560Z,86.00
2019-02-07T10:24:31.399Z,85.70
2019-02-07T10:25:32.858Z,85.70
2019-02-07T10:26:33.840Z,85.60
2019-02-07T10:27:34.656Z,85.40
2019-02-07T10:28:35.489Z,84.80
2019-02-07T10:29:36.565Z,85.20
2019-02-07T10:30:37.433Z,84.60
2019-02-07T10:31:38.370Z,84.30
2019-02-07T10:32:39.324Z,85.10
2019-02-07T10:33:40.478Z,84.60
2019-02-07T10:34:41.330Z,83.50
2019-02-07T10:35:42.294Z,83.50
2019-02-07T10:36:43.202Z,83.20
2019-02-07T10:37:44.234Z,83.20
2019-02-07T10:38:45.180Z,83.90
2019-02-07T10:39:46.115Z,83.30
2019-02-07T10:40:46.946Z,83.00
2019-02-07T10:41:47.826Z,83.20
2019-02-07T10:42:49.068Z,82.60
2019-02-07T10:43:49.888Z,82.50
2019-02-07T10:44:50.727Z,81.80
2019-02-07T10:45:51.654Z,81.50
2019-02-07T10:46:52.548Z,81.60
2019-02-07T10:47:53.456Z,81.50
2019-02-07T10:48:54.298Z,81.40
2019-02-07T10:49:59.219Z,82.50
2019-02-07T10:50:57.987Z,83.50
2019-02-07T10:51:59.385Z,82.90
2019-02-07T10:53:00.359Z,83.10
2019-02-07T10:54:01.279Z,82.80
2019-02-07T10:55:02.447Z,83.00
2019-02-07T10:56:03.312Z,82.80
2019-02-07T10:57:04.243Z,81.90
2019-02-07T10:58:05.087Z,81.20
2019-02-07T10:59:05.970Z,81.10
2019-02-07T11:00:06.830Z,81.50
2019-02-07T11:01:08.092Z,81.60
2019-02-07T11:02:08.981Z,81.40
2019-02-07T11:03:09.899Z,81.00
2019-02-07T11:04:10.836Z,81.20
2019-02-07T11:05:11.690Z,81.10
2019-02-07T11:06:12.539Z,80.70
2019-02-07T11:07:13.379Z,80.50
2019-02-07T11:08:14.221Z,80.60
2019-02-07T11:09:15.086Z,79.80
2019-02-07T11:10:16.043Z,79.90
2019-02-07T11:11:16.877Z,80.30
2019-02-07T11:12:17.850Z,80.50
2019-02-07T11:13:18.702Z,79.80
2019-02-07T11:14:19.563Z,79.20
2019-02-07T11:15:20.506Z,79.70
2019-02-07T11:16:21.455Z,79.20
2019-02-07T11:17:22.251Z,79.20
2019-02-07T11:18:23.539Z,78.60
2019-02-07T11:19:24.386Z,79.40
2019-02-07T11:20:25.528Z,78.90
2019-02-07T11:21:26.450Z,78.40
2019-02-07T11:22:27.304Z,78.30
2019-02-07T11:23:28.254Z,78.60
2019-02-07T11:24:29.392Z,79.50
2019-02-07T11:25:30.220Z,79.00
2019-02-07T11:26:31.040Z,77.30
2019-02-07T11:27:32.426Z,78.20
2019-02-07T11:28:33.351Z,78.70
2019-02-07T11:29:34.276Z,78.20
2019-02-07T11:30:40.306Z,76.70
2019-02-07T11:31:41.222Z,76.80
2019-02-07T11:32:42.109Z,76.70
2019-02-07T11:33:43.026Z,77.00
2019-02-07T11:34:45.943Z,76.90
2019-02-07T11:35:46.634Z,77.10
2019-02-07T11:36:54.234Z,76.60
2019-02-07T11:37:50.230Z,76.20
2019-02-07T11:38:51.111Z,76.00
2019-02-07T11:39:51.945Z,77.60
2019-02-07T11:40:52.852Z,76.00
2019-02-07T11:41:53.682Z,75.40
2019-02-07T11:42:54.846Z,76.20
2019-02-07T11:43:55.725Z,77.00
2019-02-07T11:44:56.711Z,75.70
2019-02-07T11:45:57.543Z,75.20
2019-02-07T11:47:05.304Z,74.80
2019-02-07T11:48:01.743Z,74.60
2019-02-07T11:49:06.922Z,75.20
2019-02-07T11:50:05.467Z,74.80
2019-02-07T11:51:06.319Z,74.80
2019-02-07T11:52:07.171Z,74.00
2019-02-07T11:53:08.116Z,73.80
2019-02-07T11:54:09.140Z,73.40
2019-02-07T11:55:10.006Z,73.80
2019-02-07T11:56:11.289Z,73.70
2019-02-07T11:57:12.150Z,73.00
2019-02-07T11:58:13.115Z,73.10
2019-02-07T11:59:14.115Z,73.20
2019-02-07T12:00:14.988Z,73.40
2019-02-07T12:01:15.816Z,74.10
2019-02-07T12:02:16.636Z,73.20
2019-02-07T12:03:17.499Z,73.10
2019-02-07T12:04:18.336Z,73.10
2019-02-07T12:05:19.768Z,73.00
2019-02-07T12:06:20.906Z,72.50
2019-02-07T12:07:21.782Z,73.00
2019-02-07T12:08:22.625Z,74.20
2019-02-07T12:09:23.746Z,73.20
2019-02-07T12:10:24.930Z,72.50
2019-02-07T12:11:25.864Z,72.30
2019-02-07T12:12:26.710Z,71.80
2019-02-07T12:13:27.596Z,73.20
2019-02-07T12:14:29.034Z,73.00
2019-02-07T12:15:30.076Z,73.40
2019-02-07T12:16:30.998Z,73.60
2019-02-07T12:17:31.947Z,74.00
2019-02-07T12:18:33.193Z,73.80
2019-02-07T12:19:34.058Z,73.30
2019-02-07T12:20:35.193Z,74.10
2019-02-07T12:21:36.095Z,73.30
2019-02-07T12:22:37.438Z,72.70
2019-02-07T12:23:38.850Z,74.40
2019-02-07T12:24:39.821Z,72.70
2019-02-07T12:25:40.752Z,73.30
2019-02-07T12:26:41.564Z,72.40
2019-02-07T12:27:42.417Z,73.00
2019-02-07T12:28:43.299Z,72.20
2019-02-07T12:29:44.175Z,72.40
2019-02-07T12:30:47.255Z,72.20
2019-02-07T12:31:48.160Z,70.90
2019-02-07T12:32:49.150Z,71.70
2019-02-07T12:33:50.062Z,71.20
2019-02-07T12:34:53.005Z,71.60
2019-02-07T12:35:54.151Z,71.80
2019-02-07T12:36:55.176Z,72.20
2019-02-07T12:37:56.011Z,73.90
2019-02-07T12:38:56.897Z,73.60
2019-02-07T12:39:57.859Z,73.20
2019-02-07T12:40:59.016Z,72.60
2019-02-07T12:42:00.341Z,72.20
2019-02-07T12:43:01.232Z,71.70
2019-02-07T12:44:02.289Z,71.90
2019-02-07T12:45:03.149Z,72.50
2019-02-07T12:46:03.985Z,72.30
2019-02-07T12:47:04.828Z,72.30
2019-02-07T12:48:05.707Z,72.20
2019-02-07T12:49:06.651Z,71.80
2019-02-07T12:50:07.803Z,71.20
2019-02-07T12:51:08.688Z,71.10
2019-02-07T12:52:09.627Z,70.60
2019-02-07T12:53:10.553Z,69.60
2019-02-07T12:54:11.457Z,70.00
2019-02-07T12:55:12.365Z,70.10
2019-02-07T12:56:13.356Z,70.70
2019-02-07T12:57:14.359Z,70.50
2019-02-07T12:58:15.342Z,71.30
2019-02-07T12:59:16.756Z,70.70
2019-02-07T13:00:17.738Z,71.20
2019-02-07T13:01:18.579Z,71.40
2019-02-07T13:02:19.458Z,71.10
2019-02-07T13:03:20.456Z,71.40
2019-02-07T13:04:21.386Z,70.60
2019-02-07T13:05:22.209Z,72.40
2019-02-07T13:06:23.071Z,70.00
2019-02-07T13:07:23.949Z,70.30